createdAt,value
2018-12-20T00:02:04.214Z,4.00
2018-12-20T00:04:35.182Z,4.00
2018-12-20T00:07:08.818Z,3.90
2018-12-20T00:09:40.223Z,3.90
2018-12-20T00:12:11.167Z,3.90
2018-12-20T00:14:42.171Z,3.90
2018-12-20T00:17:21.292Z,4.00
2018-12-20T00:19:52.197Z,4.00
2018-12-20T00:22:23.383Z,4.00
2018-12-20T00:24:54.218Z,3.90
2018-12-20T00:27:25.491Z,4.00
2018-12-20T00:29:56.654Z,3.90
2018-12-20T00:32:27.827Z,4.00
2018-12-20T00:34:59.572Z,4.00
2018-12-20T00:37:28.873Z,4.00
2018-12-20T00:40:06.223Z,4.00
2018-12-20T00:42:32.975Z,4.00
2018-12-20T00:45:04.613Z,4.00
2018-12-20T00:47:36.172Z,4.10
2018-12-20T00:50:09.852Z,4.10
2018-12-20T00:52:41.462Z,4.10
2018-12-20T00:55:12.224Z,4.10
2018-12-20T00:57:43.557Z,4.10
2018-12-20T01:00:14.961Z,4.10
2018-12-20T01:02:46.078Z,4.00
2018-12-20T01:05:19.527Z,4.00
2018-12-20T01:07:50.862Z,3.90
2018-12-20T01:13:25.651Z,4.00
2018-12-20T01:15:55.059Z,4.00
2018-12-20T01:18:26.727Z,4.00
2018-12-20T01:20:55.999Z,4.00
2018-12-20T01:23:27.052Z,4.00
2018-12-20T01:25:58.202Z,4.00
2018-12-20T01:28:29.541Z,4.00
2018-12-20T01:31:00.381Z,4.10
2018-12-20T01:33:31.737Z,4.10
2018-12-20T01:36:03.224Z,4.20
2018-12-20T01:38:36.760Z,4.10
2018-12-20T01:41:08.181Z,4.10
2018-12-20T01:43:39.325Z,4.20
2018-12-20T01:46:10.606Z,4.20
2018-12-20T01:48:42.318Z,4.20
2018-12-20T01:51:13.185Z,4.20
2018-12-20T01:53:47.069Z,4.20
2018-12-20T01:58:47.637Z,4.20
2018-12-20T02:01:18.828Z,4.10
2018-12-20T02:03:49.820Z,4.20
2018-12-20T02:06:20.979Z,4.10
2018-12-20T02:08:51.803Z,4.10
2018-12-20T02:11:22.924Z,4.10
2018-12-20T02:13:53.898Z,4.10
2018-12-20T02:16:27.449Z,4.10
2018-12-20T02:18:58.860Z,4.00
2018-12-20T02:21:32.199Z,4.00
2018-12-20T02:24:03.881Z,4.00
2018-12-20T02:26:34.897Z,4.10
2018-12-20T02:29:05.823Z,4.10
2018-12-20T02:31:36.684Z,4.20
2018-12-20T02:34:07.876Z,4.20
2018-12-20T02:36:39.354Z,4.20
2018-12-20T02:39:11.001Z,4.20
2018-12-20T02:41:42.393Z,4.20
2018-12-20T02:44:13.448Z,4.10
2018-12-20T02:46:45.404Z,4.10
2018-12-20T02:49:16.567Z,4.10
2018-12-20T02:51:48.396Z,4.10
2018-12-20T02:54:19.324Z,4.10
2018-12-20T02:56:50.148Z,4.10
2018-12-20T02:59:21.178Z,4.00
2018-12-20T03:01:52.029Z,4.10
2018-12-20T03:04:23.239Z,4.10
2018-12-20T03:06:56.973Z,4.10
2018-12-20T03:09:32.292Z,4.10
2018-12-20T03:12:03.874Z,4.20
2018-12-20T03:14:34.931Z,4.20
2018-12-20T03:17:06.162Z,4.20
2018-12-20T03:19:38.197Z,4.20
2018-12-20T03:22:09.777Z,4.20
2018-12-20T03:24:41.051Z,4.20
2018-12-20T03:27:11.921Z,4.20
2018-12-20T03:29:42.975Z,4.20
2018-12-20T03:32:14.130Z,4.20
2018-12-20T03:34:45.042Z,4.10
2018-12-20T03:37:16.992Z,4.10
2018-12-20T03:39:47.897Z,4.00
2018-12-20T03:42:21.669Z,4.00
2018-12-20T03:44:52.779Z,4.10
2018-12-20T03:47:23.820Z,4.10
2018-12-20T03:49:54.894Z,4.10
2018-12-20T03:52:26.042Z,4.10
2018-12-20T03:54:56.973Z,4.10
2018-12-20T04:05:06.652Z,4.10
2018-12-20T04:07:37.563Z,4.10
2018-12-20T04:10:08.868Z,4.00
2018-12-20T04:12:39.784Z,4.00
2018-12-20T04:15:11.103Z,4.00
2018-12-20T04:17:40.580Z,3.90
2018-12-20T04:20:14.490Z,4.00
2018-12-20T04:22:45.895Z,3.90
2018-12-20T04:25:16.933Z,4.00
2018-12-20T04:27:48.192Z,4.00
2018-12-20T04:30:21.663Z,4.10
2018-12-20T04:32:53.524Z,4.10
2018-12-20T04:35:25.339Z,4.10
2018-12-20T04:37:56.829Z,4.10
2018-12-20T04:40:27.702Z,4.10
2018-12-20T04:42:58.772Z,4.10
2018-12-20T04:45:32.241Z,4.10
2018-12-20T04:48:03.949Z,4.10
2018-12-20T04:50:36.001Z,4.20
2018-12-20T04:53:09.641Z,4.10
2018-12-20T04:55:40.647Z,4.20
2018-12-20T04:58:14.247Z,4.20
2018-12-20T05:00:45.669Z,4.20
2018-12-20T05:03:16.771Z,4.20
2018-12-20T05:05:50.359Z,4.20
2018-12-20T05:08:21.656Z,4.20
2018-12-20T05:10:52.613Z,4.20
2018-12-20T05:13:23.643Z,4.20
2018-12-20T05:15:56.383Z,4.10
2018-12-20T05:18:27.713Z,4.20
2018-12-20T05:21:01.108Z,4.20
2018-12-20T05:23:32.367Z,4.20
2018-12-20T05:26:03.859Z,4.20
2018-12-20T05:28:35.296Z,4.30
2018-12-20T05:31:06.215Z,4.30
2018-12-20T05:33:37.513Z,4.40
2018-12-20T05:36:09.020Z,4.40
2018-12-20T05:38:39.927Z,4.30
2018-12-20T05:41:13.704Z,4.30
2018-12-20T05:43:45.092Z,4.30
2018-12-20T05:46:18.801Z,4.30
2018-12-20T05:48:50.442Z,4.20
2018-12-20T05:51:24.557Z,4.20
2018-12-20T05:53:55.811Z,4.20
2018-12-20T05:56:26.939Z,4.30
2018-12-20T05:58:57.931Z,4.30
2018-12-20T06:01:29.061Z,4.40
2018-12-20T06:04:00.820Z,4.30
2018-12-20T06:06:32.087Z,4.40
2018-12-20T06:09:06.975Z,4.40
2018-12-20T06:11:38.311Z,4.40
2018-12-20T06:14:09.295Z,4.40
2018-12-20T06:16:40.368Z,4.40
2018-12-20T06:19:15.160Z,4.40
2018-12-20T06:21:46.523Z,4.40
2018-12-20T06:24:17.459Z,4.40
2018-12-20T06:26:48.361Z,4.50
2018-12-20T06:29:19.366Z,4.50
2018-12-20T06:31:50.312Z,4.50
2018-12-20T06:34:23.896Z,4.50
2018-12-20T06:36:55.388Z,4.50
2018-12-20T06:39:26.484Z,4.50
2018-12-20T06:41:57.656Z,4.50
2018-12-20T06:44:28.641Z,4.50
2018-12-20T06:47:02.407Z,4.50
2018-12-20T06:49:33.818Z,4.60
2018-12-20T06:52:04.821Z,4.70
2018-12-20T06:54:36.210Z,4.70
2018-12-20T06:57:07.208Z,4.70
2018-12-20T06:59:38.094Z,4.80
2018-12-20T07:02:09.250Z,4.90
2018-12-20T07:04:41.024Z,5.00
2018-12-20T07:07:12.695Z,5.10
2018-12-20T07:09:43.629Z,5.10
2018-12-20T07:12:14.495Z,5.20
2018-12-20T07:14:45.515Z,5.30
2018-12-20T07:19:58.268Z,5.40
2018-12-20T07:22:29.139Z,5.50
2018-12-20T07:25:03.395Z,5.40
2018-12-20T07:27:36.332Z,5.60
2018-12-20T07:30:09.904Z,5.60
2018-12-20T07:32:43.685Z,5.60
2018-12-20T07:35:14.387Z,5.60
2018-12-20T07:37:45.318Z,5.70
2018-12-20T07:40:16.191Z,5.70
2018-12-20T07:42:47.423Z,5.70
2018-12-20T07:45:21.092Z,5.70
2018-12-20T07:47:52.628Z,5.70
2018-12-20T07:50:23.542Z,5.70
2018-12-20T07:52:54.584Z,5.70
2018-12-20T07:55:23.795Z,5.70
2018-12-20T07:57:53.619Z,5.70
2018-12-20T08:00:24.498Z,5.70
2018-12-20T08:02:55.389Z,5.70
2018-12-20T08:05:26.451Z,5.70
2018-12-20T08:07:57.690Z,5.70
2018-12-20T08:10:28.791Z,5.70
2018-12-20T08:13:00.195Z,5.70
2018-12-20T08:15:31.785Z,5.70
2018-12-20T08:18:03.854Z,5.80
2018-12-20T08:20:35.040Z,5.80
2018-12-20T08:23:06.083Z,5.80
2018-12-20T08:25:37.642Z,5.80
2018-12-20T08:28:09.165Z,5.80
2018-12-20T08:30:40.556Z,5.90
2018-12-20T08:33:15.715Z,5.90
2018-12-20T08:35:49.075Z,6.00
2018-12-20T08:41:24.575Z,6.00
2018-12-20T08:43:55.850Z,6.10
2018-12-20T08:46:26.875Z,6.10
2018-12-20T08:48:58.285Z,6.10
2018-12-20T08:51:27.988Z,6.10
2018-12-20T08:53:58.785Z,6.20
2018-12-20T08:56:30.616Z,6.20
2018-12-20T08:59:06.288Z,6.20
2018-12-20T09:01:38.631Z,6.30
2018-12-20T09:04:13.147Z,6.30
2018-12-20T09:06:46.783Z,6.30
2018-12-20T09:09:19.314Z,6.40
2018-12-20T09:11:50.227Z,6.40
2018-12-20T09:14:23.903Z,6.40
2018-12-20T09:17:02.641Z,6.40
2018-12-20T09:19:28.951Z,6.40
2018-12-20T09:21:59.947Z,6.40
2018-12-20T09:24:31.941Z,6.40
2018-12-20T09:27:02.998Z,6.50
2018-12-20T09:29:34.611Z,6.50
2018-12-20T09:32:05.839Z,6.50
2018-12-20T09:34:36.748Z,6.50
2018-12-20T09:37:07.532Z,6.50
2018-12-20T09:39:38.643Z,6.60
2018-12-20T09:42:12.136Z,6.60
2018-12-20T09:44:44.260Z,6.60
2018-12-20T09:47:21.341Z,6.60
2018-12-20T09:49:50.559Z,6.70
2018-12-20T09:52:21.723Z,6.70
2018-12-20T09:54:53.442Z,6.70
2018-12-20T09:57:26.028Z,6.70
2018-12-20T09:59:55.483Z,6.70
2018-12-20T10:02:26.450Z,6.60
2018-12-20T10:04:57.692Z,6.60
2018-12-20T10:07:31.085Z,6.60
2018-12-20T10:10:02.913Z,6.50
2018-12-20T10:12:36.835Z,6.50
2018-12-20T10:15:08.014Z,6.50
2018-12-20T10:17:41.407Z,6.50
2018-12-20T10:20:15.254Z,6.50
2018-12-20T10:22:45.887Z,6.60
2018-12-20T10:25:20.052Z,6.60
2018-12-20T10:27:51.012Z,6.60
2018-12-20T10:30:22.707Z,6.70
2018-12-20T10:32:54.580Z,6.70
2018-12-20T10:35:26.430Z,6.70
2018-12-20T10:38:00.997Z,6.80
2018-12-20T10:40:31.595Z,6.80
2018-12-20T10:43:02.820Z,6.80
2018-12-20T10:45:33.580Z,6.80
2018-12-20T10:48:05.572Z,6.90
2018-12-20T10:50:36.835Z,6.90
2018-12-20T10:53:10.156Z,6.90
2018-12-20T10:55:41.645Z,6.90
2018-12-20T10:58:12.546Z,6.90
2018-12-20T11:00:49.159Z,6.90
2018-12-20T11:03:26.920Z,6.90
2018-12-20T11:06:00.709Z,6.90
2018-12-20T11:08:36.886Z,6.90
2018-12-20T11:11:15.067Z,6.90
2018-12-20T11:13:47.279Z,6.90
2018-12-20T11:16:19.178Z,6.90
2018-12-20T11:18:48.973Z,6.80
2018-12-20T11:21:19.829Z,6.80
2018-12-20T11:23:51.267Z,6.70
2018-12-20T11:26:22.667Z,6.70
2018-12-20T11:28:53.893Z,6.70
2018-12-20T11:31:25.530Z,6.80
2018-12-20T11:33:57.191Z,6.80
2018-12-20T11:36:28.591Z,6.80
2018-12-20T11:39:08.324Z,6.90
2018-12-20T11:41:37.372Z,6.90
2018-12-20T11:44:08.252Z,6.90
2018-12-20T11:46:39.320Z,6.80
2018-12-20T11:49:12.877Z,6.80
2018-12-20T11:51:43.757Z,6.80
2018-12-20T11:54:14.867Z,6.80
2018-12-20T11:56:45.727Z,6.80
2018-12-20T11:59:16.782Z,6.80
2018-12-20T12:01:47.762Z,6.80
2018-12-20T12:04:18.759Z,6.80
2018-12-20T12:06:49.680Z,6.90
2018-12-20T12:09:21.467Z,6.90
2018-12-20T12:11:52.788Z,6.90
2018-12-20T12:14:24.494Z,7.00
2018-12-20T12:16:55.658Z,7.00
2018-12-20T12:19:26.780Z,7.00
2018-12-20T12:22:00.307Z,7.00
2018-12-20T12:24:31.856Z,7.00
2018-12-20T12:27:05.351Z,7.00
2018-12-20T12:29:39.688Z,7.00
2018-12-20T12:32:10.899Z,7.00
2018-12-20T12:34:42.199Z,6.90
2018-12-20T12:37:13.942Z,6.90
2018-12-20T12:39:47.375Z,6.90
2018-12-20T12:42:19.031Z,7.00
2018-12-20T12:44:49.928Z,6.90
2018-12-20T12:47:29.109Z,6.90
2018-12-20T12:49:59.964Z,6.90
2018-12-20T12:52:30.903Z,7.00
2018-12-20T12:58:05.983Z,7.00
2018-12-20T13:00:39.400Z,7.10
2018-12-20T13:03:10.958Z,7.10
2018-12-20T13:05:42.630Z,7.10
2018-12-20T13:08:13.706Z,7.10
2018-12-20T13:10:44.616Z,7.00
2018-12-20T13:13:15.688Z,7.00
2018-12-20T13:15:46.983Z,6.90
2018-12-20T13:18:20.687Z,7.00
2018-12-20T13:20:54.651Z,6.90
2018-12-20T13:23:26.059Z,6.90
2018-12-20T13:25:57.160Z,6.90
2018-12-20T13:28:28.424Z,6.80
2018-12-20T13:30:59.218Z,6.80
2018-12-20T13:33:30.387Z,6.90
2018-12-20T13:36:01.371Z,6.90
2018-12-20T13:38:32.547Z,6.90
2018-12-20T13:41:05.979Z,7.00
2018-12-20T13:43:37.528Z,6.90
2018-12-20T13:46:08.493Z,6.90
2018-12-20T13:48:39.550Z,6.90
2018-12-20T13:51:11.175Z,6.90
2018-12-20T13:53:42.191Z,6.90
2018-12-20T13:56:16.058Z,6.90
2018-12-20T13:58:47.531Z,7.00
2018-12-20T14:01:21.068Z,7.00
2018-12-20T14:03:52.651Z,7.00
2018-12-20T14:06:26.863Z,7.00
2018-12-20T14:08:58.489Z,7.00
2018-12-20T14:11:29.302Z,7.00
2018-12-20T14:14:00.323Z,7.00
2018-12-20T14:16:31.576Z,7.10
2018-12-20T14:19:02.604Z,7.10
2018-12-20T14:21:33.380Z,7.00
2018-12-20T14:24:06.965Z,7.10
2018-12-20T14:26:38.453Z,7.00
2018-12-20T14:29:09.586Z,7.00
2018-12-20T14:31:40.715Z,7.00
2018-12-20T14:34:14.328Z,7.00
2018-12-20T14:36:45.667Z,7.10
2018-12-20T14:39:16.642Z,7.00
2018-12-20T14:41:47.383Z,7.00
2018-12-20T14:44:18.419Z,6.90
2018-12-20T14:46:51.915Z,7.00
2018-12-20T14:49:23.523Z,7.00
2018-12-20T14:51:54.532Z,7.00
2018-12-20T14:54:27.287Z,7.00
2018-12-20T14:56:58.466Z,7.00
2018-12-20T14:59:29.664Z,6.90
2018-12-20T15:02:00.724Z,6.90
2018-12-20T15:04:31.585Z,6.90
2018-12-20T15:07:05.084Z,6.90
2018-12-20T15:09:36.542Z,6.90
2018-12-20T15:12:07.840Z,6.80
2018-12-20T15:14:38.618Z,6.80
2018-12-20T15:17:09.684Z,6.80
2018-12-20T15:22:44.274Z,6.80
2018-12-20T15:25:15.605Z,6.80
2018-12-20T15:30:18.998Z,6.70
2018-12-20T15:32:50.893Z,6.70
2018-12-20T15:35:22.035Z,6.70
2018-12-20T15:37:53.075Z,6.80
2018-12-20T15:40:24.203Z,6.70
2018-12-20T15:42:55.249Z,6.80
2018-12-20T15:45:26.200Z,6.70
2018-12-20T15:47:57.533Z,6.70
2018-12-20T15:50:29.055Z,6.70
2018-12-20T15:53:00.015Z,6.70
2018-12-20T15:55:30.856Z,6.70
2018-12-20T15:57:59.803Z,6.70
2018-12-20T16:00:31.155Z,6.60
2018-12-20T16:03:02.273Z,6.60
2018-12-20T16:05:35.812Z,6.70
2018-12-20T16:08:06.679Z,6.60
2018-12-20T16:10:41.224Z,6.60
2018-12-20T16:13:12.331Z,6.60
2018-12-20T16:15:43.589Z,6.60
2018-12-20T16:18:14.503Z,6.60
2018-12-20T16:20:45.548Z,6.50
2018-12-20T16:23:16.888Z,6.50
2018-12-20T16:25:48.039Z,6.50
2018-12-20T16:28:19.880Z,6.60
2018-12-20T16:30:50.929Z,6.60
2018-12-20T16:33:21.612Z,6.60
2018-12-20T16:35:52.483Z,6.60
2018-12-20T16:38:25.832Z,6.60
2018-12-20T16:40:57.192Z,6.50
2018-12-20T16:43:28.148Z,6.50
2018-12-20T16:45:59.199Z,6.50
2018-12-20T16:48:30.116Z,6.50
2018-12-20T16:51:01.080Z,6.50
2018-12-20T16:53:32.195Z,6.40
2018-12-20T16:56:03.261Z,6.40
2018-12-20T16:58:34.367Z,6.50
2018-12-20T17:01:05.112Z,6.50
2018-12-20T17:03:36.895Z,6.50
2018-12-20T17:06:08.438Z,6.40
2018-12-20T17:08:47.774Z,6.40
2018-12-20T17:11:11.035Z,6.40
2018-12-20T17:13:42.713Z,6.40
2018-12-20T17:16:13.719Z,6.30
2018-12-20T17:18:45.019Z,6.30
2018-12-20T17:21:16.835Z,6.30
2018-12-20T17:23:47.708Z,6.40
2018-12-20T17:26:19.279Z,6.50
2018-12-20T17:28:51.182Z,6.40
2018-12-20T17:31:25.195Z,6.50
2018-12-20T17:33:56.861Z,6.50
2018-12-20T17:36:28.611Z,6.60
2018-12-20T17:38:59.735Z,6.60
2018-12-20T17:41:30.571Z,6.60
2018-12-20T17:44:02.947Z,6.60
2018-12-20T17:46:34.483Z,6.60
2018-12-20T17:49:05.453Z,6.70
2018-12-20T17:51:36.684Z,6.70
2018-12-20T17:54:07.515Z,6.70
2018-12-20T17:56:38.572Z,6.70
2018-12-20T17:59:09.975Z,6.70
2018-12-20T18:01:41.764Z,6.70
2018-12-20T18:04:12.801Z,6.70
2018-12-20T18:06:43.819Z,6.70
2018-12-20T18:09:17.415Z,6.70
2018-12-20T18:11:51.309Z,6.70
2018-12-20T18:14:22.865Z,6.70
2018-12-20T18:16:54.487Z,6.70
2018-12-20T18:19:25.478Z,6.70
2018-12-20T18:21:56.465Z,6.70
2018-12-20T18:24:27.536Z,6.70
2018-12-20T18:26:58.571Z,6.70
2018-12-20T18:29:32.031Z,6.70
2018-12-20T18:32:03.715Z,6.70
2018-12-20T18:34:34.635Z,6.70
2018-12-20T18:37:08.312Z,6.70
2018-12-20T18:39:41.957Z,6.70
2018-12-20T18:42:13.356Z,6.70
2018-12-20T18:44:44.139Z,6.70
2018-12-20T18:47:15.027Z,6.70
2018-12-20T18:49:47.612Z,6.70
2018-12-20T18:52:19.212Z,6.70
2018-12-20T18:54:52.876Z,6.70
2018-12-20T18:57:24.580Z,6.70
2018-12-20T18:59:55.373Z,6.80
2018-12-20T19:02:26.675Z,6.70
2018-12-20T19:04:57.983Z,6.80
2018-12-20T19:07:28.995Z,6.80
2018-12-20T19:10:00.171Z,6.70
2018-12-20T19:12:31.203Z,6.70
2018-12-20T19:15:02.445Z,6.70
2018-12-20T19:17:34.211Z,6.70
2018-12-20T19:20:15.843Z,6.70
2018-12-20T19:22:42.279Z,6.70
2018-12-20T19:25:13.073Z,6.70
2018-12-20T19:27:43.874Z,6.60
2018-12-20T19:30:17.508Z,6.60
2018-12-20T19:32:48.951Z,6.60
2018-12-20T19:35:20.483Z,6.60
2018-12-20T19:37:52.339Z,6.60
2018-12-20T19:40:26.015Z,6.50
2018-12-20T19:43:00.793Z,6.50
2018-12-20T19:45:31.971Z,6.50
2018-12-20T19:48:02.952Z,6.50
2018-12-20T19:50:34.687Z,6.50
2018-12-20T19:53:05.980Z,6.40
2018-12-20T19:55:39.448Z,6.40
2018-12-20T19:58:10.945Z,6.30
2018-12-20T20:00:42.130Z,6.30
2018-12-20T20:03:13.298Z,6.30
2018-12-20T20:08:47.635Z,6.30
2018-12-20T20:11:18.603Z,6.30
2018-12-20T20:13:52.347Z,6.40
2018-12-20T20:16:21.782Z,6.30
2018-12-20T20:18:53.127Z,6.20
2018-12-20T20:21:24.200Z,6.20
2018-12-20T20:23:55.135Z,6.20
2018-12-20T20:26:28.615Z,6.20
2018-12-20T20:29:00.039Z,6.10
2018-12-20T20:31:31.335Z,6.10
2018-12-20T20:34:03.624Z,6.10
2018-12-20T20:36:35.318Z,6.20
2018-12-20T20:39:07.519Z,6.10
2018-12-20T20:41:41.855Z,6.10
2018-12-20T20:44:13.195Z,6.10
2018-12-20T20:46:44.059Z,6.10
2018-12-20T20:49:15.063Z,6.10
2018-12-20T20:51:45.958Z,6.10
2018-12-20T20:54:19.696Z,6.10
2018-12-20T20:56:51.302Z,6.20
2018-12-20T20:59:22.277Z,6.20
2018-12-20T21:01:51.717Z,6.30
2018-12-20T21:04:22.759Z,6.30
2018-12-20T21:06:54.530Z,6.30
2018-12-20T21:09:25.635Z,6.30
2018-12-20T21:11:56.627Z,6.30
2018-12-20T21:14:27.630Z,6.30
2018-12-20T21:16:58.738Z,6.40
2018-12-20T21:19:32.447Z,6.40
2018-12-20T21:22:06.485Z,6.40
2018-12-20T21:24:37.912Z,6.40
2018-12-20T21:27:11.436Z,6.40
2018-12-20T21:29:43.116Z,6.40
2018-12-20T21:32:14.219Z,6.40
2018-12-20T21:34:47.719Z,6.40
2018-12-20T21:37:18.897Z,6.40
2018-12-20T21:39:52.371Z,6.40
2018-12-20T21:42:23.954Z,6.40
2018-12-20T21:44:54.979Z,6.40
2018-12-20T21:47:26.137Z,6.40
2018-12-20T21:50:00.624Z,6.50
2018-12-20T21:52:32.143Z,6.40
2018-12-20T21:55:03.547Z,6.40
2018-12-20T21:57:35.142Z,6.40
2018-12-20T22:00:09.175Z,6.40
2018-12-20T22:02:40.363Z,6.40
2018-12-20T22:05:11.484Z,6.40
2018-12-20T22:07:42.586Z,6.40
2018-12-20T22:10:13.455Z,6.50
2018-12-20T22:12:44.377Z,6.40
2018-12-20T22:15:15.274Z,6.50
2018-12-20T22:17:46.399Z,6.40
2018-12-20T22:20:17.277Z,6.40
2018-12-20T22:22:48.371Z,6.50
2018-12-20T22:25:22.001Z,6.50
2018-12-20T22:27:53.422Z,6.50
2018-12-20T22:30:24.562Z,6.50
2018-12-20T22:32:57.919Z,6.50
2018-12-20T22:35:31.554Z,6.50
2018-12-20T22:38:03.048Z,6.50
2018-12-20T22:40:33.934Z,6.50
2018-12-20T22:43:05.209Z,6.50
2018-12-20T22:45:36.856Z,6.50
2018-12-20T22:48:07.739Z,6.60
2018-12-20T22:50:38.763Z,6.60
2018-12-20T22:53:12.260Z,6.50
2018-12-20T22:55:43.934Z,6.60
2018-12-20T22:58:14.831Z,6.60
2018-12-20T23:00:52.879Z,6.60
2018-12-20T23:03:24.466Z,6.50
2018-12-20T23:05:55.639Z,6.60
2018-12-20T23:08:26.908Z,6.60
2018-12-20T23:10:57.858Z,6.70
2018-12-20T23:13:28.779Z,6.70
2018-12-20T23:15:59.795Z,6.70
2018-12-20T23:18:30.697Z,6.70
2018-12-20T23:21:05.025Z,6.70
2018-12-20T23:23:34.788Z,6.60
2018-12-20T23:26:06.023Z,6.70
2018-12-20T23:28:37.349Z,6.70
2018-12-20T23:31:09.057Z,6.60
2018-12-20T23:33:40.129Z,6.70
2018-12-20T23:36:11.157Z,6.70
2018-12-20T23:38:42.143Z,6.70
2018-12-20T23:41:13.183Z,6.70
2018-12-20T23:43:44.331Z,6.80
2018-12-20T23:46:15.511Z,6.80
2018-12-20T23:48:46.371Z,6.70
2018-12-20T23:51:18.230Z,6.80
2018-12-20T23:53:49.256Z,6.80
2018-12-20T23:56:22.691Z,6.80
2018-12-20T23:58:54.418Z,6.80
